createdAt,value
2022-12-23T00:04:14.147Z,14.40
2022-12-23T00:18:14.185Z,13.70
2022-12-23T00:32:14.297Z,13.60
2022-12-23T00:46:14.211Z,12.30
2022-12-23T01:00:14.180Z,11.85
2022-12-23T01:14:14.216Z,12.45
2022-12-23T01:28:14.203Z,11.40
2022-12-23T01:42:14.184Z,11.25
2022-12-23T01:56:14.159Z,10.30
2022-12-23T02:10:14.151Z,10.00
2022-12-23T02:24:14.177Z,9.80
2022-12-23T02:38:14.171Z,9.50
2022-12-23T02:52:14.198Z,9.30
2022-12-23T03:06:14.181Z,9.40
2022-12-23T03:20:14.198Z,9.20
2022-12-23T03:34:14.179Z,8.60
2022-12-23T03:48:14.175Z,8.30
2022-12-23T04:02:14.236Z,8.20
2022-12-23T04:16:14.228Z,8.50
2022-12-23T04:30:14.182Z,8.50
2022-12-23T04:44:14.185Z,7.70
2022-12-23T04:58:14.198Z,7.50
2022-12-23T05:12:14.203Z,7.20
2022-12-23T05:26:14.195Z,7.10
2022-12-23T05:40:15.036Z,7.30
2022-12-23T05:54:14.199Z,7.20
2022-12-23T06:08:14.216Z,7.00
2022-12-23T06:22:14.320Z,10.50
2022-12-23T06:36:14.370Z,9.00
2022-12-23T06:51:14.331Z,7.30
2022-12-23T07:06:14.341Z,6.50
2022-12-23T07:21:21.519Z,7.50
2022-12-23T07:36:14.448Z,7.80
2022-12-23T07:51:14.461Z,8.15
2022-12-23T08:06:14.456Z,8.60
2022-12-23T08:21:14.467Z,8.00
2022-12-23T08:36:19.183Z,7.80
2022-12-23T08:51:14.481Z,9.00
2022-12-23T09:06:14.495Z,11.30
2022-12-23T09:21:14.514Z,14.90
2022-12-23T09:36:14.548Z,19.00
2022-12-23T09:51:14.590Z,19.70
2022-12-23T10:06:14.635Z,23.40
2022-12-23T10:21:14.680Z,23.30
2022-12-23T10:36:14.643Z,21.80
2022-12-23T10:51:14.670Z,19.60
2022-12-23T11:06:14.684Z,20.50
2022-12-23T11:21:14.693Z,16.90
2022-12-23T11:36:14.731Z,14.15
2022-12-23T11:51:14.715Z,14.50
2022-12-23T12:06:14.729Z,12.80
2022-12-23T12:21:14.723Z,12.50
2022-12-23T12:36:14.889Z,10.80
2022-12-23T12:51:14.900Z,9.70
2022-12-23T13:06:14.881Z,10.00
2022-12-23T13:21:14.901Z,8.15
2022-12-23T13:36:14.936Z,8.70
2022-12-23T13:51:14.917Z,7.80
2022-12-23T14:06:14.907Z,6.50
2022-12-23T14:21:14.931Z,8.60
2022-12-23T14:36:15.047Z,6.60
2022-12-23T14:51:14.927Z,6.80
2022-12-23T15:07:14.967Z,6.70
2022-12-23T15:22:22.556Z,6.35
2022-12-23T15:37:15.022Z,6.60
2022-12-23T15:52:20.044Z,6.70
2022-12-23T16:07:15.086Z,7.20
2022-12-23T16:21:15.097Z,6.50
2022-12-23T16:35:15.089Z,6.80
2022-12-23T16:49:15.080Z,7.10
2022-12-23T17:03:15.133Z,6.20
2022-12-23T17:17:15.173Z,7.90
2022-12-23T17:31:18.171Z,9.30
2022-12-23T17:45:15.206Z,11.60
2022-12-23T17:59:15.214Z,9.50
2022-12-23T18:13:15.234Z,8.40
2022-12-23T18:27:15.260Z,11.20
2022-12-23T18:41:15.257Z,11.60
2022-12-23T18:55:15.263Z,10.60
2022-12-23T19:09:15.283Z,10.50
2022-12-23T19:23:15.284Z,12.40
2022-12-23T19:37:15.309Z,10.10
2022-12-23T19:51:15.295Z,10.10
2022-12-23T20:05:15.338Z,11.60
2022-12-23T20:19:15.363Z,11.10
2022-12-23T20:33:15.372Z,10.80
2022-12-23T20:47:15.392Z,10.50
2022-12-23T21:01:15.401Z,10.80
2022-12-23T21:15:15.403Z,12.30
2022-12-23T21:29:15.450Z,13.40
2022-12-23T21:43:15.438Z,15.20
2022-12-23T21:57:15.451Z,15.00
2022-12-23T22:11:15.503Z,15.90
2022-12-23T22:25:15.474Z,16.80
2022-12-23T22:39:19.946Z,16.30
2022-12-23T22:53:15.494Z,17.20
2022-12-23T23:07:15.498Z,16.90
2022-12-23T23:21:15.812Z,14.90
2022-12-23T23:35:15.540Z,15.40
2022-12-23T23:49:15.513Z,15.00
